Terminal Aerodrome Forecast
Issued by NWS Louisville, KY

Home | Current Version | Previous Version | Text Only | Print | Product List | Glossary On
Versions: 1 2 3 4 5 6 7 8 9 10 11 12 13 14 15 16
836
FTUS43 KLMK 142334
TAFSDF
TAF
KSDF 142334Z 1500/1606 18009KT P6SM FEW250
     FM151400 24015KT P6SM -SHRA OVC025
     FM151600 28014G18KT 6SM -SHRA OVC015
     FM152000 30013G20KT P6SM VCSH OVC025
     FM160000 33007KT P6SM FEW025 SCT110=

USA.gov is the U.S. government's official web portal to all federal, state and local government web resources and services.